Time;durP1;ratioP1;P1;durP2;ratioP2;P2;SDS_P1;SDS_P2;PMS_P1;PMS_P2;Temp;Humidity;BMP_temperature;BMP_pressure;BME280_temperature;BME280_humidity;BME280_pressure;Samples;Min_cycle;Max_cycle;Signal;HPM_P1;HPM_P2
2022/04/14 00:00:33;;;;;;;10.00;5.63;;;;;;;;;;5033966;28;20028;-77
2022/04/14 00:02:58;;;;;;;11.23;6.22;;;;;;;;;;5033841;28;20108;-77
2022/04/14 00:05:24;;;;;;;12.03;5.83;;;;;;;;;;5034148;28;20449;-76
2022/04/14 00:07:49;;;;;;;12.10;5.45;;;;;;;;;;5033700;28;20695;-76
2022/04/14 00:10:15;;;;;;;10.55;5.43;;;;;;;;;;5033764;28;20028;-77
2022/04/14 00:12:41;;;;;;;8.48;5.60;;;;;;;;;;5033737;28;20029;-77
2022/04/14 00:15:07;;;;;;;9.70;5.50;;;;;;;;;;5034069;28;20028;-76
2022/04/14 00:17:33;;;;;;;9.13;5.72;;;;;;;;;;5033609;28;20021;-77
2022/04/14 00:19:59;;;;;;;10.05;5.40;;;;;;;;;;5033540;28;20029;-76
2022/04/14 00:22:25;;;;;;;11.05;5.65;;;;;;;;;;5032447;28;20021;-77
2022/04/14 00:24:50;;;;;;;9.65;5.60;;;;;;;;;;5033753;28;20112;-76
2022/04/14 00:27:19;;;;;;;9.50;5.28;;;;;;;;;;5033443;28;20028;-76
2022/04/14 00:29:46;;;;;;;7.45;4.97;;;;;;;;;;5033878;28;20104;-77
2022/04/14 00:32:11;;;;;;;14.65;5.25;;;;;;;;;;5033499;28;20034;-77
2022/04/14 00:34:36;;;;;;;8.32;4.82;;;;;;;;;;5034016;28;20383;-77
2022/04/14 00:37:02;;;;;;;11.37;4.73;;;;;;;;;;5033638;28;20033;-77
2022/04/14 00:39:27;;;;;;;9.35;4.28;;;;;;;;;;5033171;28;20288;-76
2022/04/14 00:41:52;;;;;;;8.02;4.70;;;;;;;;;;5033407;28;20028;-76
2022/04/14 00:44:17;;;;;;;10.07;4.33;;;;;;;;;;5032016;28;20021;-76
2022/04/14 00:46:43;;;;;;;9.13;4.97;;;;;;;;;;5033351;28;20274;-76
2022/04/14 00:49:09;;;;;;;8.75;4.22;;;;;;;;;;5033702;28;20746;-76
2022/04/14 00:51:34;;;;;;;14.63;4.15;;;;;;;;;;5033249;28;20116;-77
2022/04/14 00:54:00;;;;;;;11.65;4.55;;;;;;;;;;5033635;28;20461;-77
2022/04/14 00:56:25;;;;;;;13.43;4.47;;;;;;;;;;5033380;28;20508;-77
2022/04/14 00:58:50;;;;;;;9.32;4.43;;;;;;;;;;5032183;28;20047;-77
2022/04/14 01:01:16;;;;;;;6.97;4.55;;;;;;;;;;5033137;28;20546;-77
2022/04/14 01:03:42;;;;;;;7.70;4.18;;;;;;;;;;5031702;28;20044;-77
2022/04/14 01:06:09;;;;;;;12.40;4.80;;;;;;;;;;5033052;28;20108;-77
2022/04/14 01:08:35;;;;;;;9.23;3.72;;;;;;;;;;5031731;28;20026;-77
2022/04/14 01:11:01;;;;;;;8.77;4.38;;;;;;;;;;5032960;28;20033;-78
2022/04/14 01:13:27;;;;;;;6.50;4.03;;;;;;;;;;5031746;28;20025;-77
2022/04/14 01:15:58;;;;;;;10.13;4.18;;;;;;;;;;5032950;28;20367;-77
2022/04/14 01:18:24;;;;;;;7.38;4.38;;;;;;;;;;5032796;28;20033;-77
2022/04/14 01:20:49;;;;;;;10.05;4.28;;;;;;;;;;5033547;28;20033;-77
2022/04/14 01:23:19;;;;;;;7.32;3.88;;;;;;;;;;5032819;28;20025;-77
2022/04/14 01:25:45;;;;;;;13.27;4.20;;;;;;;;;;5033072;28;20033;-77
2022/04/14 01:28:10;;;;;;;7.93;4.07;;;;;;;;;;5031554;28;20017;-77
2022/04/14 01:30:38;;;;;;;6.73;3.60;;;;;;;;;;5033138;28;20029;-77
2022/04/14 01:33:04;;;;;;;8.13;3.95;;;;;;;;;;5031488;28;20308;-77
2022/04/14 01:35:29;;;;;;;8.38;4.20;;;;;;;;;;5033032;28;20025;-77
2022/04/14 01:37:54;;;;;;;7.55;4.03;;;;;;;;;;5032660;28;20402;-77
2022/04/14 01:40:20;;;;;;;6.72;3.85;;;;;;;;;;5032717;28;20174;-76
2022/04/14 01:42:45;;;;;;;6.95;3.92;;;;;;;;;;5032765;28;20467;-77
2022/04/14 01:45:11;;;;;;;9.20;4.10;;;;;;;;;;5032722;28;20091;-76
2022/04/14 01:47:40;;;;;;;10.32;3.95;;;;;;;;;;5032655;28;20048;-77
2022/04/14 01:50:07;;;;;;;6.18;4.13;;;;;;;;;;5031450;28;20102;-77
2022/04/14 01:52:33;;;;;;;9.80;4.25;;;;;;;;;;5032966;28;20033;-77
2022/04/14 01:54:59;;;;;;;8.35;4.18;;;;;;;;;;5032940;28;20049;-77
2022/04/14 01:57:25;;;;;;;7.03;4.20;;;;;;;;;;5031203;28;20498;-76
2022/04/14 01:59:50;;;;;;;8.07;4.00;;;;;;;;;;5032837;28;20623;-76
2022/04/14 02:02:15;;;;;;;6.97;4.00;;;;;;;;;;5032722;28;20631;-76
2022/04/14 02:04:42;;;;;;;8.33;4.10;;;;;;;;;;5032837;28;20798;-76
2022/04/14 02:07:09;;;;;;;8.52;3.75;;;;;;;;;;5032506;28;20259;-76
2022/04/14 02:09:34;;;;;;;8.15;4.20;;;;;;;;;;5034692;28;20029;-76
2022/04/14 02:11:59;;;;;;;8.43;4.30;;;;;;;;;;5034835;28;20021;-76
2022/04/14 02:14:24;;;;;;;7.47;3.70;;;;;;;;;;5035920;28;20259;-76
2022/04/14 02:16:50;;;;;;;7.57;4.07;;;;;;;;;;5035673;28;20274;-76
2022/04/14 02:19:15;;;;;;;6.27;3.70;;;;;;;;;;5035872;28;20478;-76
2022/04/14 02:21:40;;;;;;;9.20;4.40;;;;;;;;;;5035819;28;20754;-76
2022/04/14 02:24:05;;;;;;;8.67;4.30;;;;;;;;;;5036149;28;20732;-76
2022/04/14 02:26:31;;;;;;;7.55;4.20;;;;;;;;;;5035693;28;20748;-77
2022/04/14 02:28:56;;;;;;;8.43;4.03;;;;;;;;;;5035547;28;20037;-76
2022/04/14 02:31:21;;;;;;;10.13;4.27;;;;;;;;;;5035678;28;20306;-77
2022/04/14 02:33:46;;;;;;;7.00;4.32;;;;;;;;;;5034320;28;20255;-76
2022/04/14 02:36:12;;;;;;;6.55;3.72;;;;;;;;;;5035465;28;20454;-76
2022/04/14 02:38:37;;;;;;;8.57;4.03;;;;;;;;;;5034149;28;20040;-76
2022/04/14 02:41:02;;;;;;;6.93;3.87;;;;;;;;;;5034167;28;20266;-76
2022/04/14 02:43:27;;;;;;;6.97;3.90;;;;;;;;;;5034175;28;20353;-77
2022/04/14 02:45:52;;;;;;;10.73;4.35;;;;;;;;;;5035345;28;20028;-77
2022/04/14 02:48:18;;;;;;;10.73;4.33;;;;;;;;;;5035624;28;20029;-76
2022/04/14 02:50:43;;;;;;;7.97;3.93;;;;;;;;;;5035264;28;20269;-77
2022/04/14 02:53:09;;;;;;;6.68;3.75;;;;;;;;;;5033982;28;20250;-76
2022/04/14 02:55:35;;;;;;;9.07;4.65;;;;;;;;;;5033946;28;20032;-76
2022/04/14 02:58:00;;;;;;;9.30;4.37;;;;;;;;;;5033896;28;20482;-76
2022/04/14 03:00:25;;;;;;;7.10;4.27;;;;;;;;;;5035110;28;20754;-75
2022/04/14 03:02:50;;;;;;;10.05;5.22;;;;;;;;;;5035185;28;20631;-76
2022/04/14 03:05:16;;;;;;;9.47;4.23;;;;;;;;;;5035228;28;20028;-77
2022/04/14 03:07:41;;;;;;;9.27;4.55;;;;;;;;;;5035241;28;20338;-77
2022/04/14 03:10:07;;;;;;;7.35;4.20;;;;;;;;;;5035092;28;20029;-77
2022/04/14 03:12:40;;;;;;;10.57;4.93;;;;;;;;;;5035213;28;20116;-77
2022/04/14 03:15:06;;;;;;;7.67;4.47;;;;;;;;;;5034985;28;20045;-76
2022/04/14 03:17:31;;;;;;;8.77;4.15;;;;;;;;;;5033236;28;20060;-76
2022/04/14 03:19:56;;;;;;;9.33;4.60;;;;;;;;;;5032999;28;20029;-76
2022/04/14 03:22:21;;;;;;;9.18;4.88;;;;;;;;;;5034304;28;20293;-76
2022/04/14 03:24:46;;;;;;;13.67;4.57;;;;;;;;;;5034804;28;20108;-76
2022/04/14 03:27:12;;;;;;;7.00;4.40;;;;;;;;;;5034807;28;20259;-76
2022/04/14 03:29:37;;;;;;;9.48;4.38;;;;;;;;;;5034713;28;20277;-76
2022/04/14 03:32:02;;;;;;;7.70;4.57;;;;;;;;;;5034422;28;20532;-76
2022/04/14 03:34:27;;;;;;;8.63;4.68;;;;;;;;;;5033276;28;20763;-76
2022/04/14 03:36:53;;;;;;;8.43;4.60;;;;;;;;;;5034570;28;20030;-77
2022/04/14 03:39:18;;;;;;;9.67;5.17;;;;;;;;;;5034590;28;20273;-77
2022/04/14 03:41:43;;;;;;;9.27;4.93;;;;;;;;;;5034294;28;20259;-77
2022/04/14 03:44:08;;;;;;;11.18;5.10;;;;;;;;;;5034463;28;20289;-77
2022/04/14 03:46:34;;;;;;;16.40;5.10;;;;;;;;;;5033988;28;20033;-77
2022/04/14 03:48:59;;;;;;;11.25;5.03;;;;;;;;;;5034412;28;20022;-77
2022/04/14 03:51:25;;;;;;;10.98;5.03;;;;;;;;;;5034652;28;20104;-77
2022/04/14 03:53:50;;;;;;;16.25;4.65;;;;;;;;;;5034114;28;20044;-76
2022/04/14 03:56:16;;;;;;;9.90;4.97;;;;;;;;;;5032734;28;20056;-76
2022/04/14 03:58:41;;;;;;;9.32;5.13;;;;;;;;;;5032645;28;20066;-77
2022/04/14 04:01:07;;;;;;;9.33;5.20;;;;;;;;;;5034007;28;20103;-77
2022/04/14 04:03:32;;;;;;;10.83;5.07;;;;;;;;;;5034266;28;20270;-76
2022/04/14 04:05:57;;;;;;;9.85;4.40;;;;;;;;;;5033784;28;20277;-76
2022/04/14 04:08:22;;;;;;;9.40;5.47;;;;;;;;;;5033918;28;20018;-77
2022/04/14 04:10:48;;;;;;;12.27;5.30;;;;;;;;;;5033819;28;20555;-77
2022/04/14 04:13:13;;;;;;;11.38;5.28;;;;;;;;;;5032437;28;20247;-76
2022/04/14 04:15:38;;;;;;;11.07;5.63;;;;;;;;;;5033772;28;20040;-76
2022/04/14 04:18:05;;;;;;;15.63;6.05;;;;;;;;;;5034118;28;20048;-76
2022/04/14 04:20:31;;;;;;;10.15;5.75;;;;;;;;;;5033930;28;20044;-76
2022/04/14 04:22:56;;;;;;;12.10;6.10;;;;;;;;;;5032572;28;20028;-76
2022/04/14 04:25:22;;;;;;;11.82;5.60;;;;;;;;;;5032430;28;20033;-76
2022/04/14 04:27:47;;;;;;;12.18;5.80;;;;;;;;;;5033507;28;20029;-76
2022/04/14 04:30:12;;;;;;;10.23;6.03;;;;;;;;;;5033547;28;20025;-77
2022/04/14 04:32:39;;;;;;;12.77;6.50;;;;;;;;;;5033299;28;20320;-77
2022/04/14 04:35:06;;;;;;;15.68;6.00;;;;;;;;;;5032207;28;20021;-77
2022/04/14 04:37:31;;;;;;;13.73;6.97;;;;;;;;;;5033384;28;20022;-76
2022/04/14 04:39:56;;;;;;;14.68;6.68;;;;;;;;;;5032032;28;20051;-77
2022/04/14 04:42:22;;;;;;;14.82;6.28;;;;;;;;;;5032181;28;20048;-76
2022/04/14 04:44:47;;;;;;;12.55;6.63;;;;;;;;;;5033174;28;20486;-77
2022/04/14 04:47:13;;;;;;;11.43;6.20;;;;;;;;;;5033096;28;20392;-76
2022/04/14 04:49:38;;;;;;;11.00;6.15;;;;;;;;;;5033289;28;20450;-77
2022/04/14 04:52:04;;;;;;;10.73;6.27;;;;;;;;;;5033645;28;20070;-76
2022/04/14 04:54:29;;;;;;;16.88;6.07;;;;;;;;;;5033079;28;20337;-76
2022/04/14 04:56:54;;;;;;;13.43;6.03;;;;;;;;;;5033266;28;20021;-76
2022/04/14 04:59:21;;;;;;;13.93;6.28;;;;;;;;;;5033614;28;20113;-76
2022/04/14 05:01:46;;;;;;;13.73;6.88;;;;;;;;;;5033293;28;20426;-76
2022/04/14 05:04:11;;;;;;;12.25;6.07;;;;;;;;;;5033158;28;20021;-76
2022/04/14 05:06:37;;;;;;;16.92;6.57;;;;;;;;;;5032913;28;20022;-75
2022/04/14 05:09:03;;;;;;;12.27;6.32;;;;;;;;;;5033079;28;20025;-76
2022/04/14 05:11:28;;;;;;;10.68;5.97;;;;;;;;;;5033240;28;20391;-76
2022/04/14 05:13:53;;;;;;;15.30;6.50;;;;;;;;;;5032943;28;20060;-77
2022/04/14 05:16:19;;;;;;;14.63;6.30;;;;;;;;;;5032884;28;20262;-76
2022/04/14 05:18:44;;;;;;;13.13;6.50;;;;;;;;;;5032752;28;20250;-76
2022/04/14 05:21:09;;;;;;;13.20;5.77;;;;;;;;;;5033177;28;20424;-76
2022/04/14 05:23:34;;;;;;;19.67;6.63;;;;;;;;;;5032897;28;20609;-76
2022/04/14 05:26:00;;;;;;;10.63;6.03;;;;;;;;;;5032820;28;20656;-77
2022/04/14 05:28:25;;;;;;;11.45;5.97;;;;;;;;;;5032799;28;20625;-76
2022/04/14 05:30:51;;;;;;;11.82;6.20;;;;;;;;;;5032786;28;20017;-76
2022/04/14 05:33:16;;;;;;;18.27;6.07;;;;;;;;;;5032166;28;20026;-77
2022/04/14 05:35:43;;;;;;;15.27;5.77;;;;;;;;;;5032984;28;20028;-77
2022/04/14 05:38:08;;;;;;;14.02;6.50;;;;;;;;;;5031244;28;20746;-76
2022/04/14 05:40:35;;;;;;;14.02;6.03;;;;;;;;;;5032966;28;20018;-77
2022/04/14 05:43:00;;;;;;;16.42;5.75;;;;;;;;;;5031374;28;20482;-76
2022/04/14 05:45:26;;;;;;;9.18;5.32;;;;;;;;;;5035975;28;20029;-77
2022/04/14 05:47:51;;;;;;;14.27;5.97;;;;;;;;;;5036254;28;20371;-77
2022/04/14 05:50:16;;;;;;;8.55;6.00;;;;;;;;;;5036887;28;20049;-77
2022/04/14 05:52:42;;;;;;;10.75;5.97;;;;;;;;;;5036351;28;20021;-76
2022/04/14 05:55:08;;;;;;;13.40;5.50;;;;;;;;;;5035332;28;20112;-77
2022/04/14 05:57:33;;;;;;;18.52;5.95;;;;;;;;;;5036035;28;20026;-77
2022/04/14 05:59:58;;;;;;;10.23;5.68;;;;;;;;;;5035176;28;20025;-76
2022/04/14 06:02:24;;;;;;;10.55;5.90;;;;;;;;;;5036601;28;20387;-77
2022/04/14 06:04:49;;;;;;;10.32;5.22;;;;;;;;;;5035984;28;20025;-77
2022/04/14 06:07:15;;;;;;;11.02;6.03;;;;;;;;;;5036061;28;20163;-77
2022/04/14 06:09:40;;;;;;;12.27;5.85;;;;;;;;;;5036681;28;20116;-76
2022/04/14 06:12:06;;;;;;;11.93;6.25;;;;;;;;;;5035986;28;20029;-77
2022/04/14 06:14:33;;;;;;;11.18;5.78;;;;;;;;;;5036328;28;20052;-77
2022/04/14 06:16:58;;;;;;;13.30;6.30;;;;;;;;;;5035731;28;20061;-76
2022/04/14 06:19:24;;;;;;;12.27;6.22;;;;;;;;;;5036708;28;20048;-77
2022/04/14 06:21:49;;;;;;;17.07;6.30;;;;;;;;;;5035715;28;20025;-77
2022/04/14 06:24:14;;;;;;;9.17;5.97;;;;;;;;;;5035836;28;20329;-78
2022/04/14 06:26:39;;;;;;;11.85;5.85;;;;;;;;;;5035649;28;20259;-77
2022/04/14 06:29:05;;;;;;;12.52;6.43;;;;;;;;;;5036066;28;20030;-78
2022/04/14 06:31:30;;;;;;;14.38;6.07;;;;;;;;;;5035526;28;20116;-77
2022/04/14 06:33:55;;;;;;;12.33;6.17;;;;;;;;;;5035464;28;20034;-75
2022/04/14 06:36:20;;;;;;;9.57;6.03;;;;;;;;;;5036710;28;20300;-77
2022/04/14 06:38:45;;;;;;;9.30;5.53;;;;;;;;;;5035376;28;20254;-76
2022/04/14 06:41:11;;;;;;;14.40;6.17;;;;;;;;;;5034434;28;20028;-77
2022/04/14 06:43:36;;;;;;;12.35;5.75;;;;;;;;;;5035156;28;20267;-77
2022/04/14 06:46:03;;;;;;;12.80;6.25;;;;;;;;;;5035193;28;20025;-77
2022/04/14 06:48:30;;;;;;;17.45;6.60;;;;;;;;;;5033994;28;20025;-76
2022/04/14 06:50:55;;;;;;;17.33;6.15;;;;;;;;;;5034148;28;20021;-77
2022/04/14 06:53:20;;;;;;;10.52;6.15;;;;;;;;;;5035262;28;20021;-77
2022/04/14 06:55:48;;;;;;;11.85;6.38;;;;;;;;;;5033813;28;20052;-77
2022/04/14 06:58:13;;;;;;;9.90;6.38;;;;;;;;;;5034991;28;20033;-77
2022/04/14 07:00:39;;;;;;;11.23;6.00;;;;;;;;;;5033735;28;20029;-76
2022/04/14 07:03:04;;;;;;;18.10;7.13;;;;;;;;;;5035115;28;20371;-76
2022/04/14 07:05:30;;;;;;;11.93;6.33;;;;;;;;;;5033913;28;20108;-77
2022/04/14 07:07:55;;;;;;;15.27;5.95;;;;;;;;;;5033584;28;20251;-77
2022/04/14 07:10:20;;;;;;;13.82;5.65;;;;;;;;;;5034698;28;20057;-77
2022/04/14 07:12:46;;;;;;;15.13;6.25;;;;;;;;;;5034670;28;20029;-77
2022/04/14 07:15:12;;;;;;;12.00;5.97;;;;;;;;;;5034688;28;20022;-77
2022/04/14 07:17:38;;;;;;;13.50;5.90;;;;;;;;;;5035948;28;20100;-76
2022/04/14 07:20:04;;;;;;;13.90;5.82;;;;;;;;;;5034867;28;20071;-77
2022/04/14 07:22:47;;;;;;;11.93;6.35;;;;;;;;;;5034530;28;20033;-77
2022/04/14 07:25:13;;;;;;;13.82;5.70;;;;;;;;;;5033040;28;20021;-77
2022/04/14 07:27:39;;;;;;;13.30;6.03;;;;;;;;;;5033051;28;20074;-77
2022/04/14 07:30:05;;;;;;;11.52;6.18;;;;;;;;;;5034241;28;20108;-77
2022/04/14 07:32:40;;;;;;;16.08;6.25;;;;;;;;;;5034268;28;20026;-77
2022/04/14 07:35:06;;;;;;;15.55;6.80;;;;;;;;;;5032870;28;20072;-77
2022/04/14 07:37:32;;;;;;;12.52;6.43;;;;;;;;;;5035663;28;20390;-78
2022/04/14 07:39:58;;;;;;;14.98;6.57;;;;;;;;;;5034685;28;20026;-77
2022/04/14 07:42:33;;;;;;;10.25;5.70;;;;;;;;;;5033736;28;20032;-77
2022/04/14 07:44:59;;;;;;;15.00;7.00;;;;;;;;;;5034276;28;20437;-77
2022/04/14 07:47:24;;;;;;;18.33;6.90;;;;;;;;;;5033832;28;20029;-77
2022/04/14 07:49:49;;;;;;;11.48;6.63;;;;;;;;;;5033924;28;20036;-76
2022/04/14 07:52:15;;;;;;;16.97;6.93;;;;;;;;;;5034692;28;20451;-77
2022/04/14 07:54:40;;;;;;;13.15;6.85;;;;;;;;;;5033386;28;20634;-78
2022/04/14 07:57:05;;;;;;;15.85;7.20;;;;;;;;;;5033938;28;20064;-77
2022/04/14 07:59:30;;;;;;;18.60;7.20;;;;;;;;;;5034185;28;20053;-77
2022/04/14 08:02:00;;;;;;;11.60;6.78;;;;;;;;;;5034514;28;20255;-78
2022/04/14 08:04:26;;;;;;;15.85;6.80;;;;;;;;;;5035241;28;20032;-77
2022/04/14 08:06:51;;;;;;;14.30;7.20;;;;;;;;;;5034020;28;20105;-77
2022/04/14 08:09:16;;;;;;;14.40;7.33;;;;;;;;;;5034190;28;20111;-78
2022/04/14 08:11:42;;;;;;;15.07;7.47;;;;;;;;;;5033641;28;20262;-76
2022/04/14 08:14:07;;;;;;;11.93;7.22;;;;;;;;;;5033953;28;20026;-77
2022/04/14 08:16:32;;;;;;;13.07;7.55;;;;;;;;;;5032115;28;20434;-77
2022/04/14 08:18:58;;;;;;;17.83;8.00;;;;;;;;;;5033381;28;20136;-77
2022/04/14 08:21:24;;;;;;;14.60;8.33;;;;;;;;;;5033307;28;20302;-77
2022/04/14 08:23:51;;;;;;;17.90;8.35;;;;;;;;;;5032170;28;20267;-76
2022/04/14 08:26:17;;;;;;;15.82;9.02;;;;;;;;;;5032064;28;20021;-76
2022/04/14 08:28:43;;;;;;;25.73;9.20;;;;;;;;;;5033315;28;20433;-76
2022/04/14 08:31:09;;;;;;;13.75;9.05;;;;;;;;;;5033167;28;20033;-76
2022/04/14 08:33:36;;;;;;;15.55;9.50;;;;;;;;;;5033354;28;20040;-77
2022/04/14 08:36:03;;;;;;;17.23;9.38;;;;;;;;;;5033435;28;20414;-77
2022/04/14 08:38:28;;;;;;;16.23;9.88;;;;;;;;;;5031666;28;20025;-77
2022/04/14 08:41:04;;;;;;;16.73;10.02;;;;;;;;;;5033087;28;20021;-76
2022/04/14 08:43:35;;;;;;;16.13;10.65;;;;;;;;;;5031992;28;20037;-76
2022/04/14 08:46:03;;;;;;;17.73;10.18;;;;;;;;;;5032894;28;20025;-77
2022/04/14 08:48:28;;;;;;;29.38;12.23;;;;;;;;;;5031885;28;20059;-77
2022/04/14 08:50:55;;;;;;;20.85;11.90;;;;;;;;;;5034464;28;20413;-76
2022/04/14 08:53:25;;;;;;;22.25;11.35;;;;;;;;;;5034069;28;20026;-78
2022/04/14 08:55:51;;;;;;;22.90;12.10;;;;;;;;;;5033204;28;20021;-77
2022/04/14 08:58:19;;;;;;;25.20;12.55;;;;;;;;;;5033031;28;20108;-77
2022/04/14 09:00:45;;;;;;;20.08;12.05;;;;;;;;;;5032862;28;20021;-76
2022/04/14 09:03:13;;;;;;;29.20;13.00;;;;;;;;;;5031948;28;20026;-77
2022/04/14 09:05:38;;;;;;;19.95;12.20;;;;;;;;;;5031558;28;20117;-76
2022/04/14 09:08:03;;;;;;;24.17;12.90;;;;;;;;;;5033022;28;20048;-77
2022/04/14 09:10:29;;;;;;;23.40;12.32;;;;;;;;;;5031634;28;20025;-77
2022/04/14 09:12:54;;;;;;;21.13;11.93;;;;;;;;;;5033007;28;20025;-77
2022/04/14 09:15:20;;;;;;;23.63;13.35;;;;;;;;;;5032773;28;20312;-77
2022/04/14 09:17:45;;;;;;;21.40;12.68;;;;;;;;;;5032459;28;20036;-77
2022/04/14 09:20:31;;;;;;;21.33;12.15;;;;;;;;;;5035749;28;20108;-77
2022/04/14 09:23:20;;;;;;;21.52;12.50;;;;;;;;;;5035843;28;20517;-77
2022/04/14 09:25:50;;;;;;;27.00;13.73;;;;;;;;;;5036741;28;20116;-77
2022/04/14 09:28:18;;;;;;;22.27;12.65;;;;;;;;;;5036597;28;20048;-77
2022/04/14 09:31:00;;;;;;;26.52;13.75;;;;;;;;;;5036993;28;20483;-77
2022/04/14 09:33:26;;;;;;;22.45;13.63;;;;;;;;;;5035320;28;20061;-77
2022/04/14 09:36:17;;;;;;;20.15;12.40;;;;;;;;;;5036875;28;20056;-77
2022/04/14 09:39:06;;;;;;;20.25;12.45;;;;;;;;;;5036376;28;20398;-77
2022/04/14 09:41:31;;;;;;;27.73;13.95;;;;;;;;;;5036521;28;20490;-77
2022/04/14 09:43:58;;;;;;;26.85;13.85;;;;;;;;;;5036608;28;20061;-77
2022/04/14 09:46:25;;;;;;;26.25;13.80;;;;;;;;;;5036113;28;20029;-77
2022/04/14 09:49:10;;;;;;;24.48;12.60;;;;;;;;;;5036657;28;20435;-78
2022/04/14 09:51:39;;;;;;;29.25;13.07;;;;;;;;;;5036437;28;20021;-78
2022/04/14 09:54:17;;;;;;;27.73;13.65;;;;;;;;;;5035118;28;20030;-77
2022/04/14 09:56:48;;;;;;;26.33;13.18;;;;;;;;;;5035928;28;20171;-77
2022/04/14 09:59:18;;;;;;;27.52;12.93;;;;;;;;;;5036408;28;20386;-77
2022/04/14 10:01:44;;;;;;;23.05;12.88;;;;;;;;;;5036749;28;20025;-77
2022/04/14 10:04:33;;;;;;;22.27;12.60;;;;;;;;;;5035997;28;20394;-77
2022/04/14 10:07:10;;;;;;;27.70;13.45;;;;;;;;;;5036252;28;20107;-76
2022/04/14 10:09:39;;;;;;;25.08;13.05;;;;;;;;;;5035688;28;20078;-77
2022/04/14 10:12:24;;;;;;;26.98;13.85;;;;;;;;;;5034469;28;20482;-77
2022/04/14 10:14:55;;;;;;;20.50;11.73;;;;;;;;;;5036137;28;20039;-78
2022/04/14 10:17:24;;;;;;;28.23;13.57;;;;;;;;;;5035730;28;20100;-77
2022/04/14 10:19:50;;;;;;;24.45;13.55;;;;;;;;;;5034443;28;20083;-77
2022/04/14 10:22:15;;;;;;;22.40;13.52;;;;;;;;;;5036134;28;20026;-77
2022/04/14 10:24:41;;;;;;;22.05;13.18;;;;;;;;;;5034889;28;20022;-77
2022/04/14 10:27:07;;;;;;;22.05;12.75;;;;;;;;;;5034484;28;20013;-77
2022/04/14 10:29:33;;;;;;;27.27;13.43;;;;;;;;;;5033857;28;20120;-77
2022/04/14 10:31:58;;;;;;;23.75;13.32;;;;;;;;;;5034347;28;20064;-77
2022/04/14 10:34:24;;;;;;;29.00;14.25;;;;;;;;;;5036019;28;20029;-76
2022/04/14 10:36:50;;;;;;;22.58;13.38;;;;;;;;;;5035445;28;20112;-77
2022/04/14 10:39:16;;;;;;;24.55;13.30;;;;;;;;;;5034193;28;20052;-77
2022/04/14 10:41:46;;;;;;;23.58;12.70;;;;;;;;;;5035388;28;20053;-77
2022/04/14 10:44:13;;;;;;;28.45;13.50;;;;;;;;;;5033913;28;20033;-77
2022/04/14 10:46:41;;;;;;;27.92;13.07;;;;;;;;;;5033732;28;20120;-77
2022/04/14 10:49:10;;;;;;;27.40;13.75;;;;;;;;;;5035741;28;20490;-76
2022/04/14 10:51:36;;;;;;;24.63;13.00;;;;;;;;;;5034022;28;20025;-77
2022/04/14 10:54:06;;;;;;;24.42;13.15;;;;;;;;;;5035794;28;20505;-78
2022/04/14 10:56:45;;;;;;;21.48;12.98;;;;;;;;;;5035023;28;20022;-76
2022/04/14 10:59:31;;;;;;;24.02;13.18;;;;;;;;;;5038589;28;20405;-76
2022/04/14 11:02:02;;;;;;;24.33;13.40;;;;;;;;;;5044420;28;20102;-76
2022/04/14 11:04:29;;;;;;;22.25;12.70;;;;;;;;;;5045617;28;20037;-77
2022/04/14 11:07:08;;;;;;;23.70;12.23;;;;;;;;;;5047015;28;20467;-77
2022/04/14 11:09:42;;;;;;;23.00;12.65;;;;;;;;;;5045053;28;20025;-77
2022/04/14 11:12:23;;;;;;;26.75;13.45;;;;;;;;;;5041843;28;20031;-74
2022/04/14 11:14:59;;;;;;;19.42;10.00;;;;;;;;;;5036789;28;20029;-74
2022/04/14 11:17:30;;;;;;;18.38;10.00;;;;;;;;;;5037665;28;20475;-74
2022/04/14 11:19:55;;;;;;;18.80;11.23;;;;;;;;;;5038923;28;20022;-73
2022/04/14 11:22:21;;;;;;;23.20;12.93;;;;;;;;;;5044433;28;20024;-77
2022/04/14 11:24:46;;;;;;;21.95;12.38;;;;;;;;;;5044789;28;20436;-76
2022/04/14 11:27:24;;;;;;;21.85;11.98;;;;;;;;;;5040132;28;20022;-77
2022/04/14 11:29:53;;;;;;;22.67;12.00;;;;;;;;;;5035131;28;20428;-77
2022/04/14 11:32:36;;;;;;;25.92;11.88;;;;;;;;;;5034864;28;20025;-78
2022/04/14 11:35:16;;;;;;;23.30;12.85;;;;;;;;;;5033528;28;20026;-76
2022/04/14 11:37:46;;;;;;;21.23;10.07;;;;;;;;;;5034479;28;20085;-75
2022/04/14 11:40:17;;;;;;;23.60;10.85;;;;;;;;;;5035349;28;20104;-77
2022/04/14 11:42:47;;;;;;;25.65;12.27;;;;;;;;;;5033730;28;20025;-77
2022/04/14 11:45:12;;;;;;;18.80;10.85;;;;;;;;;;5032672;28;20036;-77
2022/04/14 11:47:38;;;;;;;25.55;11.85;;;;;;;;;;5033949;28;20201;-76
2022/04/14 11:50:04;;;;;;;19.55;11.05;;;;;;;;;;5034556;28;20486;-77
2022/04/14 11:52:30;;;;;;;20.48;10.07;;;;;;;;;;5034508;28;20033;-77
2022/04/14 11:54:55;;;;;;;17.00;9.93;;;;;;;;;;5033834;28;20029;-77
2022/04/14 11:57:25;;;;;;;15.80;10.40;;;;;;;;;;5033439;28;20026;-77
2022/04/14 11:59:51;;;;;;;22.75;10.05;;;;;;;;;;5033742;28;20743;-77
2022/04/14 12:02:20;;;;;;;13.73;8.13;;;;;;;;;;5032725;28;20079;-76
2022/04/14 12:04:51;;;;;;;14.30;8.60;;;;;;;;;;5033967;28;20072;-75
2022/04/14 12:07:17;;;;;;;14.52;8.32;;;;;;;;;;5032334;28;20025;-77
2022/04/14 12:09:43;;;;;;;14.65;8.70;;;;;;;;;;5033817;28;20053;-77
2022/04/14 12:12:33;;;;;;;15.32;8.27;;;;;;;;;;5033628;28;20051;-76
2022/04/14 12:14:59;;;;;;;11.63;8.43;;;;;;;;;;5033542;28;20029;-77
2022/04/14 12:17:25;;;;;;;9.73;7.32;;;;;;;;;;5033447;28;20504;-77
2022/04/14 12:19:56;;;;;;;15.18;8.35;;;;;;;;;;5033632;28;20025;-77
2022/04/14 12:22:23;;;;;;;14.30;8.85;;;;;;;;;;5033402;28;20030;-77
2022/04/14 12:24:51;;;;;;;12.63;7.80;;;;;;;;;;5033311;28;20198;-77
2022/04/14 12:27:24;;;;;;;14.30;7.32;;;;;;;;;;5033587;28;20085;-77
2022/04/14 12:30:02;;;;;;;11.48;7.60;;;;;;;;;;5034566;28;20418;-77
2022/04/14 12:32:28;;;;;;;11.07;7.35;;;;;;;;;;5034727;28;20041;-77
2022/04/14 12:34:55;;;;;;;10.60;6.72;;;;;;;;;;5032712;28;20025;-77
2022/04/14 12:37:21;;;;;;;7.50;5.43;;;;;;;;;;5033192;28;20025;-76
2022/04/14 12:40:14;;;;;;;15.88;6.38;;;;;;;;;;5033560;28;20036;-78
2022/04/14 12:42:41;;;;;;;14.73;5.75;;;;;;;;;;5034078;28;20045;-77
2022/04/14 12:45:13;;;;;;;11.57;5.70;;;;;;;;;;5034308;28;20029;-77
2022/04/14 12:47:43;;;;;;;8.88;6.53;;;;;;;;;;5034629;28;20054;-79
2022/04/14 12:50:09;;;;;;;10.15;6.18;;;;;;;;;;5033422;28;20064;-76
2022/04/14 12:52:35;;;;;;;11.43;6.55;;;;;;;;;;5033181;28;20025;-75
2022/04/14 12:55:00;;;;;;;10.52;5.68;;;;;;;;;;5033033;28;20030;-75
2022/04/14 12:57:28;;;;;;;8.85;5.63;;;;;;;;;;5033606;28;20033;-77
2022/04/14 13:00:08;;;;;;;8.18;5.45;;;;;;;;;;5032110;28;20032;-77
2022/04/14 13:02:34;;;;;;;7.88;5.18;;;;;;;;;;5033333;28;20364;-77
2022/04/14 13:05:06;;;;;;;8.77;5.20;;;;;;;;;;5032903;28;20079;-77
2022/04/14 13:07:44;;;;;;;9.13;4.43;;;;;;;;;;5031627;28;20497;-76
2022/04/14 13:10:09;;;;;;;9.40;4.50;;;;;;;;;;5033122;28;20055;-77
2022/04/14 13:12:42;;;;;;;7.03;4.50;;;;;;;;;;5032889;28;20490;-78
2022/04/14 13:15:09;;;;;;;6.55;3.95;;;;;;;;;;5032589;28;20255;-78
2022/04/14 13:17:38;;;;;;;5.72;3.95;;;;;;;;;;5033660;28;20083;-77
2022/04/14 13:20:07;;;;;;;7.55;3.60;;;;;;;;;;5032909;28;20026;-78
2022/04/14 13:22:32;;;;;;;6.82;3.85;;;;;;;;;;5032914;28;20022;-77
2022/04/14 13:24:58;;;;;;;6.15;3.92;;;;;;;;;;5031645;28;20067;-78
2022/04/14 13:27:23;;;;;;;6.17;3.30;;;;;;;;;;5033251;28;20082;-77
2022/04/14 13:29:48;;;;;;;6.30;3.20;;;;;;;;;;5032840;28;20349;-77
2022/04/14 13:32:14;;;;;;;5.70;2.93;;;;;;;;;;5033168;28;20040;-78
2022/04/14 13:34:39;;;;;;;4.78;3.10;;;;;;;;;;5034096;28;20250;-77
2022/04/14 13:37:05;;;;;;;5.82;3.20;;;;;;;;;;5035393;28;20155;-78
2022/04/14 13:39:30;;;;;;;9.02;3.08;;;;;;;;;;5033213;28;20401;-77
2022/04/14 13:41:56;;;;;;;6.93;2.73;;;;;;;;;;5034194;28;20367;-77
2022/04/14 13:44:21;;;;;;;5.60;2.35;;;;;;;;;;5035247;28;20676;-77
2022/04/14 13:46:46;;;;;;;4.57;2.60;;;;;;;;;;5034264;28;20029;-77
2022/04/14 13:49:11;;;;;;;3.63;2.60;;;;;;;;;;5033529;28;20068;-77
2022/04/14 13:51:37;;;;;;;6.63;2.33;;;;;;;;;;5033294;28;20302;-78
2022/04/14 13:54:03;;;;;;;6.72;2.60;;;;;;;;;;5033202;28;20259;-77
2022/04/14 13:56:28;;;;;;;4.57;2.25;;;;;;;;;;5031075;28;20113;-77
2022/04/14 13:58:54;;;;;;;5.03;2.50;;;;;;;;;;5032601;28;20449;-76
2022/04/14 14:01:19;;;;;;;5.77;2.27;;;;;;;;;;5032479;28;20051;-77
2022/04/14 14:03:45;;;;;;;4.27;2.37;;;;;;;;;;5032296;28;20259;-77
2022/04/14 14:06:10;;;;;;;5.88;2.30;;;;;;;;;;5035483;28;20299;-77
2022/04/14 14:08:35;;;;;;;6.17;2.23;;;;;;;;;;5036787;28;20112;-80
2022/04/14 14:11:02;;;;;;;4.50;2.20;;;;;;;;;;5036749;28;20267;-76
2022/04/14 14:13:28;;;;;;;6.20;2.28;;;;;;;;;;5034583;28;20270;-77
2022/04/14 14:15:53;;;;;;;6.15;2.30;;;;;;;;;;5037453;28;20026;-78
2022/04/14 14:18:19;;;;;;;6.40;2.10;;;;;;;;;;5038649;28;20060;-78
2022/04/14 14:20:45;;;;;;;4.38;2.10;;;;;;;;;;5038934;28;20324;-77
2022/04/14 14:23:10;;;;;;;4.60;2.20;;;;;;;;;;5037689;28;20352;-77
2022/04/14 14:25:37;;;;;;;3.95;2.30;;;;;;;;;;5036750;28;20029;-77
2022/04/14 14:28:03;;;;;;;4.65;2.20;;;;;;;;;;5037755;28;20056;-77
2022/04/14 14:30:29;;;;;;;6.30;2.20;;;;;;;;;;5036952;28;20072;-78